Time;durP1;ratioP1;P1;durP2;ratioP2;P2;SDS_P1;SDS_P2;PMS_P1;PMS_P2;Temp;Humidity;BMP_temperature;BMP_pressure;BME280_temperature;BME280_humidity;BME280_pressure;Samples;Min_cycle;Max_cycle;Signal;HPM_P1;HPM_P2
2022/01/07 00:02:13;;;;;;;;;;;;;;;8.88;63.92;99669.91;5012536;28;892;-56
2022/01/07 00:04:39;;;;;;;;;;;;;;;8.80;64.07;99673.84;5012292;28;904;-56
2022/01/07 00:07:06;;;;;;;;;;;;;;;8.76;63.39;99673.06;5012728;28;828;-56
2022/01/07 00:09:32;;;;;;;;;;;;;;;8.69;63.97;99673.84;5012298;28;919;-56
2022/01/07 00:11:59;;;;;;;;;;;;;;;8.71;63.69;99674.25;5012216;28;1085;-56
2022/01/07 00:14:25;;;;;;;;;;;;;;;8.64;64.42;99670.69;5012103;28;1953;-56
2022/01/07 00:16:52;;;;;;;;;;;;;;;8.45;65.03;99677.34;5012109;28;1511;-56
2022/01/07 00:19:19;;;;;;;;;;;;;;;8.39;65.29;99679.69;5012518;28;896;-56
2022/01/07 00:21:46;;;;;;;;;;;;;;;8.33;65.55;99682.03;5012113;28;907;-57
2022/01/07 00:24:12;;;;;;;;;;;;;;;8.30;65.58;99682.81;5012172;28;918;-56
2022/01/07 00:26:39;;;;;;;;;;;;;;;8.22;65.52;99683.97;5011965;28;888;-56
2022/01/07 00:29:06;;;;;;;;;;;;;;;8.15;65.17;99672.91;5012106;28;836;-56
2022/01/07 00:31:32;;;;;;;;;;;;;;;8.15;65.75;99686.69;5011957;28;891;-56
2022/01/07 00:33:59;;;;;;;;;;;;;;;8.13;65.10;99675.31;5012377;28;1914;-57
2022/01/07 00:36:25;;;;;;;;;;;;;;;8.06;65.91;99698.06;5012229;28;836;-57
2022/01/07 00:38:52;;;;;;;;;;;;;;;8.03;65.94;99685.09;5012333;28;825;-56
2022/01/07 00:41:18;;;;;;;;;;;;;;;8.03;65.34;99709.09;5012694;28;769;-57
2022/01/07 00:43:45;;;;;;;;;;;;;;;8.02;65.54;99699.22;5012015;28;848;-57
2022/01/07 00:46:11;;;;;;;;;;;;;;;8.07;64.69;99698.88;5011737;28;833;-57
2022/01/07 00:48:38;;;;;;;;;;;;;;;7.99;64.94;99698.06;5011800;28;840;-56
2022/01/07 00:51:04;;;;;;;;;;;;;;;7.92;64.82;99701.56;5011718;28;971;-56
2022/01/07 00:53:30;;;;;;;;;;;;;;;7.86;64.99;99688.56;5011521;28;1894;-56
2022/01/07 00:55:57;;;;;;;;;;;;;;;7.87;64.72;99684.63;4994116;28;959;-56
2022/01/07 00:58:23;;;;;;;;;;;;;;;7.82;64.98;99685.00;5011647;28;867;-56
2022/01/07 01:00:50;;;;;;;;;;;;;;;7.77;65.14;99694.44;5011831;28;812;-56
2022/01/07 01:03:15;;;;;;;;;;;;;;;7.76;65.33;99690.88;4994216;28;820;-56
2022/01/07 01:05:44;;;;;;;;;;;;;;;7.74;65.18;99673.97;4994006;28;848;-56
2022/01/07 01:08:11;;;;;;;;;;;;;;;7.77;64.96;99688.94;5011549;28;915;-56
2022/01/07 01:10:38;;;;;;;;;;;;;;;7.75;64.78;99692.06;5011633;28;836;-56
2022/01/07 01:13:04;;;;;;;;;;;;;;;7.70;64.67;99670.44;5011929;28;910;-56
2022/01/07 01:15:31;;;;;;;;;;;;;;;7.68;64.90;99686.53;5011431;28;1886;-56
2022/01/07 01:17:58;;;;;;;;;;;;;;;7.64;64.77;99710.47;5011431;28;1481;-56
2022/01/07 01:20:25;;;;;;;;;;;;;;;7.62;65.22;99704.56;5011450;28;872;-56
2022/01/07 01:22:51;;;;;;;;;;;;;;;7.59;65.25;99710.81;5011497;28;1038;-56
2022/01/07 01:25:18;;;;;;;;;;;;;;;7.55;65.33;99693.50;5011374;28;884;-56
2022/01/07 01:27:44;;;;;;;;;;;;;;;7.50;65.53;99700.16;5011384;28;925;-56
2022/01/07 01:30:12;;;;;;;;;;;;;;;7.48;65.07;99698.97;5011363;28;927;-56
2022/01/07 01:32:39;;;;;;;;;;;;;;;7.43;64.54;99685.59;5011348;28;896;-55
2022/01/07 01:35:06;;;;;;;;;;;;;;;7.36;65.34;99702.81;5011522;28;1965;-56
2022/01/07 01:37:33;;;;;;;;;;;;;;;7.32;64.80;99688.28;5011336;28;1006;-56
2022/01/07 01:39:59;;;;;;;;;;;;;;;7.22;65.28;99713.75;5011614;28;961;-56
2022/01/07 01:42:26;;;;;;;;;;;;;;;7.19;64.98;99707.06;5011323;28;836;-56
2022/01/07 01:44:51;;;;;;;;;;;;;;;7.15;65.19;99704.28;5011261;28;801;-56
2022/01/07 01:47:18;;;;;;;;;;;;;;;7.11;64.68;99719.94;5011441;28;871;-56
2022/01/07 01:49:44;;;;;;;;;;;;;;;7.11;65.22;99725.44;5011268;28;860;-56
2022/01/07 01:52:11;;;;;;;;;;;;;;;7.12;64.05;99705.03;5011313;28;820;-56
2022/01/07 01:54:38;;;;;;;;;;;;;;;7.12;64.14;99732.50;5011005;28;1882;-56
2022/01/07 01:57:04;;;;;;;;;;;;;;;7.13;63.56;99731.34;5011628;28;912;-56
2022/01/07 01:59:32;;;;;;;;;;;;;;;7.15;63.62;99729.00;5014773;28;852;-56
2022/01/07 02:01:58;;;;;;;;;;;;;;;7.15;63.43;99725.47;5014808;28;805;-56
2022/01/07 02:04:25;;;;;;;;;;;;;;;7.11;62.84;99732.91;5014930;28;832;-56
2022/01/07 02:06:51;;;;;;;;;;;;;;;7.10;63.21;99739.56;5014708;28;879;-56
2022/01/07 02:09:22;;;;;;;;;;;;;;;7.04;63.47;99741.88;5014541;28;820;-56
2022/01/07 02:11:49;;;;;;;;;;;;;;;7.05;63.07;99737.97;4997647;28;1058;-57
2022/01/07 02:14:15;;;;;;;;;;;;;;;7.04;63.91;99743.81;5014415;28;1894;-56
2022/01/07 02:16:42;;;;;;;;;;;;;;;7.04;63.21;99741.06;5014231;28;1067;-56
2022/01/07 02:19:08;;;;;;;;;;;;;;;7.03;63.20;99745.00;5014682;28;911;-56
2022/01/07 02:21:38;;;;;;;;;;;;;;;6.99;63.64;99741.44;5014471;28;848;-55
2022/01/07 02:24:05;;;;;;;;;;;;;;;6.97;63.18;99741.81;5014139;28;963;-56
2022/01/07 02:26:35;;;;;;;;;;;;;;;6.93;64.29;99735.50;5014197;28;892;-56
2022/01/07 02:29:03;;;;;;;;;;;;;;;6.88;63.86;99755.09;4996719;28;1577;-57
2022/01/07 02:31:30;;;;;;;;;;;;;;;6.90;63.85;99739.78;5014112;28;911;-56
2022/01/07 02:33:56;;;;;;;;;;;;;;;6.84;63.85;99746.00;5014075;28;1914;-56
2022/01/07 02:36:22;;;;;;;;;;;;;;;6.83;64.29;99772.69;5014118;28;844;-56
2022/01/07 02:38:49;;;;;;;;;;;;;;;6.79;64.19;99743.63;5014165;28;821;-56
2022/01/07 02:41:15;;;;;;;;;;;;;;;6.75;64.06;99749.84;5014012;28;872;-56
2022/01/07 02:43:42;;;;;;;;;;;;;;;6.70;63.84;99757.63;5013887;28;939;-56
2022/01/07 02:46:08;;;;;;;;;;;;;;;6.67;64.55;99761.94;4996478;28;825;-56
2022/01/07 02:48:35;;;;;;;;;;;;;;;6.62;64.64;99747.78;5013844;28;899;-56
2022/01/07 02:51:01;;;;;;;;;;;;;;;6.59;64.50;99759.50;5013826;28;845;-56
2022/01/07 02:53:28;;;;;;;;;;;;;;;6.57;63.65;99756.34;5013725;28;820;-55
2022/01/07 02:55:54;;;;;;;;;;;;;;;6.49;64.17;99766.47;5013934;28;1886;-56
2022/01/07 02:58:21;;;;;;;;;;;;;;;6.43;64.22;99773.47;5013740;28;832;-56
2022/01/07 03:00:47;;;;;;;;;;;;;;;6.41;63.91;99771.06;5013664;28;820;-56
2022/01/07 03:03:13;;;;;;;;;;;;;;;6.37;63.79;99758.47;5013713;28;907;-56
2022/01/07 03:05:41;;;;;;;;;;;;;;;6.34;64.09;99758.06;5013594;28;859;-56
2022/01/07 03:08:09;;;;;;;;;;;;;;;6.32;65.07;99757.66;5013120;28;902;-56
2022/01/07 03:10:35;;;;;;;;;;;;;;;6.32;63.86;99759.59;5012845;28;820;-56
2022/01/07 03:13:03;;;;;;;;;;;;;;;6.31;64.43;99761.53;5013562;28;1005;-56
2022/01/07 03:15:31;;;;;;;;;;;;;;;6.28;63.88;99769.75;4995764;28;1898;-56
2022/01/07 03:17:57;;;;;;;;;;;;;;;6.28;62.79;99776.03;5013166;28;1487;-56
2022/01/07 03:20:23;;;;;;;;;;;;;;;6.28;63.29;99780.72;5013305;28;884;-56
2022/01/07 03:22:50;;;;;;;;;;;;;;;6.25;62.58;99789.69;5013111;28;852;-56
2022/01/07 03:25:17;;;;;;;;;;;;;;;6.24;63.29;99797.16;5013125;28;1232;-56
2022/01/07 03:27:44;;;;;;;;;;;;;;;6.18;64.14;99795.13;5013044;28;930;-56
2022/01/07 03:30:12;;;;;;;;;;;;;;;6.18;62.86;99790.41;5013077;28;813;-54
2022/01/07 03:32:39;;;;;;;;;;;;;;;6.18;63.25;99789.63;5012969;28;865;-56
2022/01/07 03:35:06;;;;;;;;;;;;;;;6.19;62.88;99799.41;5012812;28;1914;-56
2022/01/07 03:37:33;;;;;;;;;;;;;;;6.21;63.01;99817.13;5012959;28;872;-56
2022/01/07 03:40:00;;;;;;;;;;;;;;;6.23;62.31;99817.53;5012964;28;884;-56
2022/01/07 03:42:26;;;;;;;;;;;;;;;6.18;62.66;99815.09;5012864;28;923;-56
2022/01/07 03:44:52;;;;;;;;;;;;;;;6.15;62.47;99810.38;5012708;28;872;-55
2022/01/07 03:47:19;;;;;;;;;;;;;;;6.17;62.62;99819.03;5012782;28;840;-56
2022/01/07 03:49:45;;;;;;;;;;;;;;;6.16;62.32;99816.66;5012972;28;911;-56
2022/01/07 03:52:11;;;;;;;;;;;;;;;6.18;62.26;99804.13;5012667;28;892;-53
2022/01/07 03:54:38;;;;;;;;;;;;;;;6.14;62.06;99833.47;5012512;28;1889;-56
2022/01/07 03:57:04;;;;;;;;;;;;;;;6.10;62.06;99838.94;5012637;28;845;-56
2022/01/07 03:59:30;;;;;;;;;;;;;;;6.10;61.63;99838.13;5012603;28;817;-55
2022/01/07 04:01:56;;;;;;;;;;;;;;;6.06;61.53;99813.41;5012434;28;983;-55
2022/01/07 04:04:24;;;;;;;;;;;;;;;6.02;62.17;99817.25;5012575;28;887;-56
2022/01/07 04:06:50;;;;;;;;;;;;;;;5.98;62.95;99846.59;5012439;28;809;-56
2022/01/07 04:09:16;;;;;;;;;;;;;;;6.06;62.54;99865.53;5012539;28;1036;-56
2022/01/07 04:11:43;;;;;;;;;;;;;;;6.09;63.01;99872.22;5012339;28;856;-56
2022/01/07 04:14:09;;;;;;;;;;;;;;;6.18;63.12;99891.16;5012414;28;1961;-56
2022/01/07 04:16:36;;;;;;;;;;;;;;;6.22;62.69;99903.78;5012101;28;1442;-56
2022/01/07 04:19:02;;;;;;;;;;;;;;;6.30;62.73;99902.72;5012217;28;983;-56
2022/01/07 04:21:29;;;;;;;;;;;;;;;6.32;62.49;99897.66;5011915;28;899;-56
2022/01/07 04:23:56;;;;;;;;;;;;;;;6.38;61.70;99902.81;5012312;28;825;-56
2022/01/07 04:26:22;;;;;;;;;;;;;;;6.43;60.97;99897.78;5012349;28;880;-56
2022/01/07 04:28:49;;;;;;;;;;;;;;;6.38;61.66;99902.81;5012381;28;813;-56
2022/01/07 04:31:16;;;;;;;;;;;;;;;6.28;60.88;99893.28;5012304;28;832;-56
2022/01/07 04:33:42;;;;;;;;;;;;;;;6.30;61.23;99907.41;5012197;28;1918;-56
2022/01/07 04:36:08;;;;;;;;;;;;;;;6.37;59.47;99921.25;5011999;28;897;-55
2022/01/07 04:38:35;;;;;;;;;;;;;;;6.44;59.55;99926.81;5011815;28;832;-56
2022/01/07 04:41:01;;;;;;;;;;;;;;;6.42;59.82;99939.34;5012137;28;825;-56
2022/01/07 04:43:27;;;;;;;;;;;;;;;6.53;59.17;99932.06;5012050;28;853;-56
2022/01/07 04:45:53;;;;;;;;;;;;;;;6.54;58.39;99931.66;4994322;28;864;-56
2022/01/07 04:48:19;;;;;;;;;;;;;;;6.60;58.94;99945.88;5011792;28;891;-56
2022/01/07 04:50:46;;;;;;;;;;;;;;;6.55;58.43;99946.22;5011632;28;900;-56
2022/01/07 04:53:12;;;;;;;;;;;;;;;6.40;59.03;99936.16;5011794;28;887;-56
2022/01/07 04:55:39;;;;;;;;;;;;;;;6.33;58.08;99934.13;4994222;28;1890;-56
2022/01/07 04:58:06;;;;;;;;;;;;;;;6.43;58.05;99952.72;5011660;28;828;-56
2022/01/07 05:00:36;;;;;;;;;;;;;;;6.42;58.34;99948.38;5011621;28;888;-56
2022/01/07 05:03:03;;;;;;;;;;;;;;;6.36;58.10;99952.63;5011735;28;816;-56
2022/01/07 05:05:29;;;;;;;;;;;;;;;6.40;57.58;99961.69;5011616;28;801;-56
2022/01/07 05:07:56;;;;;;;;;;;;;;;6.49;56.67;99972.41;5011614;28;868;-55
2022/01/07 05:10:22;;;;;;;;;;;;;;;6.61;56.60;99976.88;5011553;28;848;-56
2022/01/07 05:12:49;;;;;;;;;;;;;;;6.67;57.15;99992.66;5011722;28;1224;-56
2022/01/07 05:15:16;;;;;;;;;;;;;;;6.63;57.18;100002.81;5011450;28;1894;-56
2022/01/07 05:17:43;;;;;;;;;;;;;;;6.46;57.70;99995.88;5011378;28;1298;-56
2022/01/07 05:20:10;;;;;;;;;;;;;;;6.49;57.79;100005.38;5011391;28;864;-56
2022/01/07 05:22:36;;;;;;;;;;;;;;;6.41;58.27;99996.22;5011480;28;923;-56
2022/01/07 05:25:04;;;;;;;;;;;;;;;6.36;57.55;100010.28;5011426;28;844;-56
2022/01/07 05:27:30;;;;;;;;;;;;;;;6.38;57.82;100009.88;5011459;28;856;-56
2022/01/07 05:29:57;;;;;;;;;;;;;;;6.35;57.99;100014.16;5011406;28;865;-55
2022/01/07 05:32:23;;;;;;;;;;;;;;;6.27;58.05;100029.75;5012350;28;861;-56
2022/01/07 05:34:50;;;;;;;;;;;;;;;6.30;57.87;100030.94;4997559;28;1976;-56
2022/01/07 05:37:16;;;;;;;;;;;;;;;6.26;57.06;100033.63;5015135;28;920;-56
2022/01/07 05:39:42;;;;;;;;;;;;;;;6.21;57.92;100025.72;5015183;28;915;-56
2022/01/07 05:42:08;;;;;;;;;;;;;;;6.16;57.67;100028.75;5015283;28;892;-56
2022/01/07 05:44:35;;;;;;;;;;;;;;;6.13;57.09;100007.53;5015121;28;902;-56
2022/01/07 05:47:01;;;;;;;;;;;;;;;6.01;57.86;100024.19;5015044;28;914;-56
2022/01/07 05:49:29;;;;;;;;;;;;;;;5.99;57.51;100026.50;5015035;28;868;-56
2022/01/07 05:51:56;;;;;;;;;;;;;;;5.89;58.34;100016.91;5014854;28;927;-56
2022/01/07 05:54:22;;;;;;;;;;;;;;;5.87;58.03;100008.25;5014760;28;1972;-56
2022/01/07 05:56:49;;;;;;;;;;;;;;;5.81;58.67;100004.22;5014823;28;825;-56
2022/01/07 05:59:16;;;;;;;;;;;;;;;5.72;59.26;99996.25;4997205;28;876;-56
2022/01/07 06:01:42;;;;;;;;;;;;;;;5.59;60.08;99994.81;5014820;28;832;-56
2022/01/07 06:04:09;;;;;;;;;;;;;;;5.49;60.56;99986.03;5014745;28;1067;-55
2022/01/07 06:06:36;;;;;;;;;;;;;;;5.38;61.18;100006.19;5014693;28;848;-56
2022/01/07 06:09:03;;;;;;;;;;;;;;;5.34;61.29;100013.56;5014587;28;881;-56
2022/01/07 06:11:29;;;;;;;;;;;;;;;5.36;60.87;100024.94;5014650;28;900;-56
2022/01/07 06:13:55;;;;;;;;;;;;;;;5.40;60.98;100025.78;5014893;28;1882;-55
2022/01/07 06:16:22;;;;;;;;;;;;;;;5.44;60.58;100037.63;4996669;28;1266;-56
2022/01/07 06:18:57;;;;;;;;;;;;;;;5.48;60.53;100063.97;5014467;28;915;-54
2022/01/07 06:21:23;;;;;;;;;;;;;;;5.49;61.26;100032.66;5014315;28;891;-55
2022/01/07 06:23:53;;;;;;;;;;;;;;;5.48;60.48;100050.25;5014360;28;857;-54
2022/01/07 06:26:19;;;;;;;;;;;;;;;5.51;60.42;100055.00;5014202;28;920;-56
2022/01/07 06:28:45;;;;;;;;;;;;;;;5.52;60.67;100050.31;5014561;28;900;-55
2022/01/07 06:31:12;;;;;;;;;;;;;;;5.48;60.73;100044.78;5014142;28;884;-55
2022/01/07 06:33:39;;;;;;;;;;;;;;;5.48;61.22;100052.19;5014035;28;904;-55
2022/01/07 06:36:05;;;;;;;;;;;;;;;5.43;61.94;100050.53;5014080;28;1902;-55
2022/01/07 06:38:32;;;;;;;;;;;;;;;5.41;62.06;100050.09;5014089;28;852;-56
2022/01/07 06:40:58;;;;;;;;;;;;;;;5.39;61.64;100016.78;5014402;28;852;-53
2022/01/07 06:43:25;;;;;;;;;;;;;;;5.28;62.71;100049.44;5013685;28;870;-56
2022/01/07 06:45:51;;;;;;;;;;;;;;;5.24;62.35;100045.06;5014033;28;904;-55
2022/01/07 06:48:18;;;;;;;;;;;;;;;5.19;62.59;100056.31;5013860;28;887;-56
2022/01/07 06:50:46;;;;;;;;;;;;;;;5.15;63.71;100056.22;5014091;28;965;-56
2022/01/07 06:53:12;;;;;;;;;;;;;;;5.13;64.08;100057.75;5013795;28;836;-56
2022/01/07 06:55:38;;;;;;;;;;;;;;;5.13;63.61;100071.44;5013734;28;1906;-56
2022/01/07 06:58:04;;;;;;;;;;;;;;;5.09;64.24;100071.38;5013867;28;883;-56
2022/01/07 07:00:30;;;;;;;;;;;;;;;5.07;63.99;100055.28;5013671;28;868;-56
2022/01/07 07:02:57;;;;;;;;;;;;;;;5.07;63.91;100073.66;5013630;28;878;-56
2022/01/07 07:05:24;;;;;;;;;;;;;;;5.01;64.09;100075.09;5013628;28;848;-55
2022/01/07 07:07:51;;;;;;;;;;;;;;;4.96;64.00;100081.66;5013430;28;908;-56
2022/01/07 07:10:17;;;;;;;;;;;;;;;4.91;64.80;100090.16;5013505;28;923;-55
2022/01/07 07:12:44;;;;;;;;;;;;;;;4.87;65.42;100094.78;5013743;28;943;-56
2022/01/07 07:15:10;;;;;;;;;;;;;;;4.86;64.73;100088.47;5013210;28;1882;-55
2022/01/07 07:17:36;;;;;;;;;;;;;;;4.84;65.24;100093.53;5013241;28;1290;-57
2022/01/07 07:20:03;;;;;;;;;;;;;;;4.81;65.16;100104.41;5013285;28;821;-56
2022/01/07 07:22:30;;;;;;;;;;;;;;;4.78;65.81;100092.22;5013209;28;836;-56
2022/01/07 07:24:57;;;;;;;;;;;;;;;4.74;65.78;100096.00;5013165;28;852;-56
2022/01/07 07:27:23;;;;;;;;;;;;;;;4.73;65.91;100108.91;5013209;28;841;-56
2022/01/07 07:29:49;;;;;;;;;;;;;;;4.71;65.91;100081.09;5013068;28;1059;-56
2022/01/07 07:32:23;;;;;;;;;;;;;;;4.69;66.04;100094.34;5013010;28;1103;-56
2022/01/07 07:37:42;;;;;;;;;;;;;;;4.66;66.51;100100.53;5009695;28;1183;-55
2022/01/07 07:40:09;;;;;;;;;;;;;;;4.67;65.90;100089.25;5012903;28;887;-58
2022/01/07 07:42:36;;;;;;;;;;;;;;;4.66;66.62;100095.84;5012916;28;879;-57
2022/01/07 07:45:03;;;;;;;;;;;;;;;4.68;66.56;100106.47;5012808;28;852;-56
2022/01/07 07:47:28;;;;;;;;;;;;;;;4.72;66.75;100084.63;5012684;28;970;-55
2022/01/07 07:49:55;;;;;;;;;;;;;;;4.76;66.23;100105.47;5012757;28;837;-56
2022/01/07 07:52:21;;;;;;;;;;;;;;;4.80;66.32;100102.81;5012572;28;994;-57
2022/01/07 07:54:47;;;;;;;;;;;;;;;4.83;66.37;100102.91;5012034;28;1968;-57
2022/01/07 07:57:14;;;;;;;;;;;;;;;4.84;66.09;100090.00;5012586;28;892;-57
2022/01/07 07:59:40;;;;;;;;;;;;;;;4.88;65.64;100090.88;5012527;28;896;-57
2022/01/07 08:02:09;;;;;;;;;;;;;;;4.93;65.64;100119.91;5012450;28;1030;-57
2022/01/07 08:04:37;;;;;;;;;;;;;;;4.95;64.93;100110.22;5012391;28;985;-57
2022/01/07 08:07:04;;;;;;;;;;;;;;;4.97;65.12;100090.66;5012295;28;900;-55
2022/01/07 08:09:35;;;;;;;;;;;;;;;4.99;64.82;100108.31;5012369;28;932;-57
2022/01/07 08:12:17;;;;;;;;;;;;;;;5.04;64.48;100110.03;5012231;28;1021;-57
2022/01/07 08:17:29;;;;;;;;;;;;;;;5.08;64.48;100111.69;5012045;28;1438;-56
2022/01/07 08:19:56;;;;;;;;;;;;;;;5.09;64.87;100117.94;5012308;28;828;-57
2022/01/07 08:22:23;;;;;;;;;;;;;;;5.12;64.79;100125.44;4994508;28;1360;-57
2022/01/07 08:24:49;;;;;;;;;;;;;;;5.17;64.46;100102.47;5012249;28;577;-57
2022/01/07 08:27:15;;;;;;;;;;;;;;;5.24;63.49;100114.38;4994353;28;1492;-57
2022/01/07 08:29:42;;;;;;;;;;;;;;;5.36;63.94;100102.47;5012450;28;812;-57
2022/01/07 08:34:58;;;;;;;;;;;;;;;5.60;62.49;100106.88;5012010;28;1906;-53
2022/01/07 08:37:25;;;;;;;;;;;;;;;5.74;62.17;100114.63;5011959;28;1014;-57
2022/01/07 08:39:53;;;;;;;;;;;;;;;5.89;62.31;100110.97;5011946;28;844;-57
2022/01/07 08:42:22;;;;;;;;;;;;;;;5.85;62.49;100123.84;5011975;28;819;-57
2022/01/07 08:44:51;;;;;;;;;;;;;;;5.86;62.37;100111.69;5011827;28;918;-57
2022/01/07 08:47:18;;;;;;;;;;;;;;;5.64;62.66;100128.91;5011694;28;915;-57
2022/01/07 08:49:43;;;;;;;;;;;;;;;5.59;63.11;100116.28;5011827;28;876;-56
2022/01/07 08:52:10;;;;;;;;;;;;;;;5.48;64.29;100104.28;5011811;28;899;-57
2022/01/07 08:54:36;;;;;;;;;;;;;;;5.36;63.91;100116.19;5011885;28;1953;-57
2022/01/07 08:57:03;;;;;;;;;;;;;;;5.28;64.72;100117.19;5011777;28;904;-57
2022/01/07 08:59:29;;;;;;;;;;;;;;;5.26;64.75;100119.50;5011997;28;820;-56
2022/01/07 09:01:55;;;;;;;;;;;;;;;5.25;64.47;100123.41;5011704;28;907;-54
2022/01/07 09:04:23;;;;;;;;;;;;;;;5.22;64.38;100137.81;5011714;28;816;-57
2022/01/07 09:06:49;;;;;;;;;;;;;;;5.27;65.21;100119.16;5013373;28;915;-57
2022/01/07 09:09:15;;;;;;;;;;;;;;;5.22;64.15;100124.88;5015797;28;856;-57
2022/01/07 09:11:42;;;;;;;;;;;;;;;5.16;64.99;100117.31;5015931;28;883;-57
2022/01/07 09:14:08;;;;;;;;;;;;;;;5.16;64.10;100115.34;5016033;28;1890;-57
2022/01/07 09:16:35;;;;;;;;;;;;;;;5.17;65.04;100138.88;5015321;28;1382;-57
2022/01/07 09:19:03;;;;;;;;;;;;;;;5.21;64.94;100109.59;5015616;28;824;-57
2022/01/07 09:21:29;;;;;;;;;;;;;;;5.16;63.81;100120.03;4998048;28;975;-56
2022/01/07 09:23:56;;;;;;;;;;;;;;;5.14;65.09;100127.84;5015421;28;1002;-57
2022/01/07 09:26:23;;;;;;;;;;;;;;;5.19;64.23;100131.09;5015744;28;860;-57
2022/01/07 09:28:49;;;;;;;;;;;;;;;5.25;64.24;100128.88;5015364;28;876;-56
2022/01/07 09:31:17;;;;;;;;;;;;;;;5.25;64.69;100131.63;5015440;28;965;-57
2022/01/07 09:33:43;;;;;;;;;;;;;;;5.37;64.39;100127.94;5015303;28;1686;-57
2022/01/07 09:36:09;;;;;;;;;;;;;;;5.38;63.85;100116.63;5015209;28;2038;-57
2022/01/07 09:38:36;;;;;;;;;;;;;;;5.36;64.60;100129.91;5015297;28;883;-57
2022/01/07 09:41:05;;;;;;;;;;;;;;;5.32;64.24;100107.88;5015248;28;896;-56
2022/01/07 09:43:31;;;;;;;;;;;;;;;5.33;63.92;100147.03;5014965;28;979;-57
2022/01/07 09:45:58;;;;;;;;;;;;;;;5.37;63.80;100109.53;5014888;28;879;-57
2022/01/07 09:48:24;;;;;;;;;;;;;;;5.44;63.83;100100.66;5015090;28;966;-57
2022/01/07 09:50:51;;;;;;;;;;;;;;;5.56;63.07;100116.19;5015061;28;848;-57
2022/01/07 09:53:18;;;;;;;;;;;;;;;5.59;62.90;100119.03;5014918;28;1072;-57
2022/01/07 09:55:45;;;;;;;;;;;;;;;5.67;61.96;100112.50;5014664;28;1890;-57
2022/01/07 09:58:13;;;;;;;;;;;;;;;5.82;62.63;100113.56;5014775;28;939;-57
2022/01/07 10:00:40;;;;;;;;;;;;;;;5.87;61.09;100107.81;5014685;28;962;-57
2022/01/07 10:03:08;;;;;;;;;;;;;;;5.92;60.95;100120.44;5014823;28;883;-57
2022/01/07 10:05:42;;;;;;;;;;;;;;;6.00;60.42;100122.19;5014627;28;985;-57
2022/01/07 10:08:23;;;;;;;;;;;;;;;6.02;60.02;100094.41;5014661;28;833;-55
2022/01/07 10:11:07;;;;;;;;;;;;;;;5.98;59.58;100110.00;5014600;28;860;-55
2022/01/07 10:13:34;;;;;;;;;;;;;;;5.97;60.81;100109.19;5015202;28;924;-57
2022/01/07 10:16:12;;;;;;;;;;;;;;;6.03;59.80;100101.44;5014852;28;1886;-55
2022/01/07 10:18:38;;;;;;;;;;;;;;;6.02;59.70;100119.09;5013762;28;1348;-56
2022/01/07 10:21:08;;;;;;;;;;;;;;;6.04;60.78;100108.50;5014476;28;862;-57
2022/01/07 10:23:34;;;;;;;;;;;;;;;6.05;59.60;100118.34;5014482;28;864;-57
2022/01/07 10:26:01;;;;;;;;;;;;;;;6.13;59.36;100101.66;5014243;28;946;-57
2022/01/07 10:28:34;;;;;;;;;;;;;;;6.25;59.82;100114.41;5014511;28;844;-57
2022/01/07 10:31:02;;;;;;;;;;;;;;;6.33;59.25;100113.34;5014239;28;890;-56
2022/01/07 10:33:29;;;;;;;;;;;;;;;6.39;59.57;100104.81;5014022;28;947;-57
2022/01/07 10:36:15;;;;;;;;;;;;;;;6.38;59.43;100117.78;5014097;28;1914;-56
2022/01/07 10:38:50;;;;;;;;;;;;;;;6.37;58.87;100134.59;5014032;28;1206;-57
2022/01/07 10:41:17;;;;;;;;;;;;;;;6.32;59.68;100128.25;5014170;28;827;-57
2022/01/07 10:43:44;;;;;;;;;;;;;;;6.33;60.69;100126.28;5014035;28;856;-56
2022/01/07 10:46:24;;;;;;;;;;;;;;;6.46;59.87;100135.13;5013844;28;863;-56
2022/01/07 10:48:53;;;;;;;;;;;;;;;6.44;59.09;100118.25;5013842;28;869;-57
2022/01/07 10:51:23;;;;;;;;;;;;;;;6.47;59.80;100125.75;5013867;28;828;-57
2022/01/07 10:54:05;;;;;;;;;;;;;;;6.43;58.79;100125.69;5014271;28;919;-57
2022/01/07 10:56:34;;;;;;;;;;;;;;;6.42;59.40;100120.56;5013677;28;936;-56
2022/01/07 10:59:11;;;;;;;;;;;;;;;6.30;58.84;100105.84;5013638;28;866;-56
2022/01/07 11:01:39;;;;;;;;;;;;;;;6.28;59.98;100119.16;5013592;28;876;-56
2022/01/07 11:04:07;;;;;;;;;;;;;;;6.28;60.55;100124.66;5013827;28;1190;-55
2022/01/07 11:06:34;;;;;;;;;;;;;;;6.33;60.63;100129.81;5013497;28;955;-57
2022/01/07 11:09:01;;;;;;;;;;;;;;;6.26;60.20;100113.25;5013491;28;831;-57
2022/01/07 11:11:29;;;;;;;;;;;;;;;6.21;60.92;100108.06;5013574;28;829;-54
2022/01/07 11:14:03;;;;;;;;;;;;;;;6.19;61.00;100135.09;5013730;28;1878;-57
2022/01/07 11:16:30;;;;;;;;;;;;;;;6.18;61.29;100151.91;5013209;28;1302;-57
2022/01/07 11:18:57;;;;;;;;;;;;;;;6.26;61.34;100137.16;4995706;28;678;-57
2022/01/07 11:21:23;;;;;;;;;;;;;;;6.28;61.71;100146.59;5013238;28;867;-57
2022/01/07 11:23:50;;;;;;;;;;;;;;;6.27;61.35;100125.00;5013603;28;844;-53
2022/01/07 11:26:17;;;;;;;;;;;;;;;6.21;61.31;100141.00;5013233;28;907;-57
2022/01/07 11:28:57;;;;;;;;;;;;;;;6.28;61.21;100146.59;5013155;28;895;-56
2022/01/07 11:31:24;;;;;;;;;;;;;;;6.26;61.54;100148.94;5012219;28;907;-57
2022/01/07 11:34:09;;;;;;;;;;;;;;;6.24;61.46;100134.78;4995474;28;1249;-57
2022/01/07 11:36:38;;;;;;;;;;;;;;;6.18;63.11;100143.66;5012995;28;895;-57
2022/01/07 11:39:05;;;;;;;;;;;;;;;6.13;63.04;100145.56;5012931;28;927;-57
2022/01/07 11:41:45;;;;;;;;;;;;;;;6.19;62.79;100148.00;5012866;28;963;-57
2022/01/07 11:44:13;;;;;;;;;;;;;;;6.18;62.54;100144.47;5013117;28;860;-57
2022/01/07 11:46:40;;;;;;;;;;;;;;;6.22;62.97;100137.09;5013009;28;829;-57
2022/01/07 11:49:27;;;;;;;;;;;;;;;6.23;62.33;100152.41;5013023;28;821;-57
2022/01/07 11:51:53;;;;;;;;;;;;;;;6.19;63.34;100142.50;5012730;28;1622;-57
2022/01/07 11:54:20;;;;;;;;;;;;;;;6.20;63.24;100146.84;5012615;28;1886;-57
2022/01/07 11:56:47;;;;;;;;;;;;;;;6.20;64.36;100142.16;5012555;28;971;-57
2022/01/07 11:59:15;;;;;;;;;;;;;;;6.20;63.74;100153.13;5012425;28;868;-57
2022/01/07 12:01:42;;;;;;;;;;;;;;;6.18;63.49;100155.44;5012924;28;793;-57
2022/01/07 12:04:14;;;;;;;;;;;;;;;6.16;63.81;100157.75;5013140;28;778;-57
2022/01/07 12:06:41;;;;;;;;;;;;;;;6.17;63.63;100153.88;5012459;28;919;-57
2022/01/07 12:09:10;;;;;;;;;;;;;;;6.21;63.94;100148.41;5012373;28;932;-57
2022/01/07 12:11:42;;;;;;;;;;;;;;;6.15;63.93;100156.19;5012381;28;903;-57
2022/01/07 12:14:14;;;;;;;;;;;;;;;6.09;64.13;100155.66;5012515;28;1878;-56
2022/01/07 12:16:41;;;;;;;;;;;;;;;6.05;64.47;100175.97;5012270;28;1389;-57
2022/01/07 12:19:08;;;;;;;;;;;;;;;6.00;65.07;100163.34;5012360;28;836;-57
2022/01/07 12:21:36;;;;;;;;;;;;;;;5.98;65.25;100173.88;5012485;28;836;-57
2022/01/07 12:24:10;;;;;;;;;;;;;;;5.96;65.18;100170.72;5012120;28;940;-57
2022/01/07 12:26:36;;;;;;;;;;;;;;;5.91;64.95;100169.03;5012212;28;816;-57
2022/01/07 12:29:03;;;;;;;;;;;;;;;5.93;65.84;100177.69;5012185;28;860;-57
2022/01/07 12:31:30;;;;;;;;;;;;;;;5.93;65.36;100171.38;5012085;28;832;-57
2022/01/07 12:33:58;;;;;;;;;;;;;;;5.98;65.17;100170.34;5012155;28;2007;-56
2022/01/07 12:36:28;;;;;;;;;;;;;;;5.95;64.81;100171.84;4994576;28;809;-57
2022/01/07 12:39:02;;;;;;;;;;;;;;;5.93;65.56;100174.13;5012006;28;853;-57
2022/01/07 12:41:29;;;;;;;;;;;;;;;5.98;65.59;100176.63;5011683;28;1828;-57
2022/01/07 12:44:05;;;;;;;;;;;;;;;5.98;66.20;100168.41;5011811;28;1036;-57
2022/01/07 12:46:32;;;;;;;;;;;;;;;5.98;65.42;100170.34;5012034;28;863;-57
2022/01/07 12:48:59;;;;;;;;;;;;;;;6.01;66.28;100173.16;5012197;28;828;-57
2022/01/07 12:51:25;;;;;;;;;;;;;;;6.03;65.72;100179.06;5012106;28;858;-57
2022/01/07 12:54:03;;;;;;;;;;;;;;;6.02;65.31;100172.00;5012048;28;1057;-57
2022/01/07 12:56:33;;;;;;;;;;;;;;;6.01;65.56;100167.66;5011780;28;821;-57
2022/01/07 12:59:21;;;;;;;;;;;;;;;6.02;65.90;100176.72;5011695;28;1062;-57
2022/01/07 13:01:49;;;;;;;;;;;;;;;6.01;65.82;100173.16;5011623;28;920;-57
2022/01/07 13:04:17;;;;;;;;;;;;;;;6.08;65.35;100180.72;5011652;28;939;-57
2022/01/07 13:06:44;;;;;;;;;;;;;;;6.13;66.09;100174.97;5011546;28;959;-57
2022/01/07 13:09:12;;;;;;;;;;;;;;;6.12;65.46;100187.91;5011940;28;821;-57
2022/01/07 13:11:39;;;;;;;;;;;;;;;6.05;66.57;100175.97;5011598;28;1019;-57
2022/01/07 13:14:07;;;;;;;;;;;;;;;5.92;66.87;100175.31;5011386;28;1883;-57
2022/01/07 13:16:34;;;;;;;;;;;;;;;5.70;68.32;100185.06;5011436;28;1247;-57
2022/01/07 13:19:07;;;;;;;;;;;;;;;5.47;70.23;100184.94;5011566;28;828;-57
2022/01/07 13:21:35;;;;;;;;;;;;;;;5.30;71.34;100189.69;5011475;28;932;-57